sensor_id;sensor_type;location;lat;lon;timestamp;pressure;altitude;pressure_sealevel;temperature;humidity
7168;BME280;3625;51.762;14.320;2023-05-24T00:00:07;100789.22;;;11.68;100.00
7168;BME280;3625;51.762;14.320;2023-05-24T00:02:39;100872.19;;;12.15;100.00
7168;BME280;3625;51.762;14.320;2023-05-24T00:05:09;100832.22;;;11.84;100.00
7168;BME280;3625;51.762;14.320;2023-05-24T00:07:38;100890.94;;;12.07;100.00
7168;BME280;3625;51.762;14.320;2023-05-24T00:10:09;100890.28;;;11.96;100.00
7168;BME280;3625;51.762;14.320;2023-05-24T00:12:41;100890.31;;;11.95;100.00
7168;BME280;3625;51.762;14.320;2023-05-24T00:15:10;100854.75;;;11.60;100.00
7168;BME280;3625;51.762;14.320;2023-05-24T00:17:39;100902.03;;;11.85;100.00
7168;BME280;3625;51.762;14.320;2023-05-24T00:20:10;100899.41;;;11.83;100.00
7168;BME280;3625;51.762;14.320;2023-05-24T00:22:41;100904.63;;;11.86;100.00
7168;BME280;3625;51.762;14.320;2023-05-24T00:25:09;100901.19;;;11.81;100.00
7168;BME280;3625;51.762;14.320;2023-05-24T00:27:39;100902.19;;;11.74;100.00
7168;BME280;3625;51.762;14.320;2023-05-24T00:30:12;100820.13;;;11.25;100.00
7168;BME280;3625;51.762;14.320;2023-05-24T00:32:41;100898.84;;;11.64;100.00
7168;BME280;3625;51.762;14.320;2023-05-24T00:35:09;100905.13;;;11.59;100.00
7168;BME280;3625;51.762;14.320;2023-05-24T00:37:38;100863.31;;;11.28;100.00
7168;BME280;3625;51.762;14.320;2023-05-24T00:40:12;100907.13;;;11.48;100.00
7168;BME280;3625;51.762;14.320;2023-05-24T00:42:42;100908.81;;;11.50;100.00
7168;BME280;3625;51.762;14.320;2023-05-24T00:45:11;100908.16;;;11.39;100.00
7168;BME280;3625;51.762;14.320;2023-05-24T00:47:44;100910.00;;;11.34;100.00
7168;BME280;3625;51.762;14.320;2023-05-24T00:50:13;100901.31;;;11.26;100.00
7168;BME280;3625;51.762;14.320;2023-05-24T00:52:43;100812.34;;;10.68;100.00
7168;BME280;3625;51.762;14.320;2023-05-24T00:55:14;100908.47;;;11.24;100.00
7168;BME280;3625;51.762;14.320;2023-05-24T00:57:47;100877.94;;;11.02;100.00
7168;BME280;3625;51.762;14.320;2023-05-24T01:00:16;100905.81;;;11.22;100.00
7168;BME280;3625;51.762;14.320;2023-05-24T01:02:46;100911.25;;;11.15;100.00
7168;BME280;3625;51.762;14.320;2023-05-24T01:05:17;100880.75;;;10.91;100.00
7168;BME280;3625;51.762;14.320;2023-05-24T01:07:58;100880.09;;;10.80;100.00
7168;BME280;3625;51.762;14.320;2023-05-24T01:10:42;100922.91;;;11.05;100.00
7168;BME280;3625;51.762;14.320;2023-05-24T01:13:28;100914.97;;;11.03;100.00
7168;BME280;3625;51.762;14.320;2023-05-24T01:16:04;100918.63;;;10.96;100.00
7168;BME280;3625;51.762;14.320;2023-05-24T01:18:46;100881.03;;;10.74;100.00
7168;BME280;3625;51.762;14.320;2023-05-24T01:21:37;100932.78;;;10.95;100.00
7168;BME280;3625;51.762;14.320;2023-05-24T01:24:29;100889.97;;;10.69;100.00
7168;BME280;3625;51.762;14.320;2023-05-24T01:27:10;100747.59;;;9.80;100.00
7168;BME280;3625;51.762;14.320;2023-05-24T01:29:40;100931.09;;;10.89;100.00
7168;BME280;3625;51.762;14.320;2023-05-24T01:32:10;100926.75;;;10.85;100.00
7168;BME280;3625;51.762;14.320;2023-05-24T01:34:41;100922.44;;;10.80;100.00
7168;BME280;3625;51.762;14.320;2023-05-24T01:37:10;100925.22;;;10.69;100.00
7168;BME280;3625;51.762;14.320;2023-05-24T01:39:39;100928.81;;;10.65;100.00
7168;BME280;3625;51.762;14.320;2023-05-24T01:42:26;100893.78;;;10.48;100.00
7168;BME280;3625;51.762;14.320;2023-05-24T01:45:10;100925.25;;;10.68;100.00
7168;BME280;3625;51.762;14.320;2023-05-24T01:47:56;100760.81;;;9.78;100.00
7168;BME280;3625;51.762;14.320;2023-05-24T01:50:31;100922.59;;;10.68;100.00
7168;BME280;3625;51.762;14.320;2023-05-24T01:53:06;100927.16;;;10.58;100.00
7168;BME280;3625;51.762;14.320;2023-05-24T01:55:38;100928.94;;;10.56;100.00
7168;BME280;3625;51.762;14.320;2023-05-24T01:58:09;100932.53;;;10.53;100.00
7168;BME280;3625;51.762;14.320;2023-05-24T02:00:44;100923.75;;;10.51;100.00
7168;BME280;3625;51.762;14.320;2023-05-24T02:03:14;100805.81;;;9.75;100.00
7168;BME280;3625;51.762;14.320;2023-05-24T02:05:46;100818.13;;;9.76;100.00
7168;BME280;3625;51.762;14.320;2023-05-24T02:08:19;100930.88;;;10.46;100.00
7168;BME280;3625;51.762;14.320;2023-05-24T02:10:51;100933.56;;;10.43;100.00
7168;BME280;3625;51.762;14.320;2023-05-24T02:13:21;100838.22;;;9.88;100.00
7168;BME280;3625;51.762;14.320;2023-05-24T02:15:51;100926.50;;;10.42;100.00
7168;BME280;3625;51.762;14.320;2023-05-24T02:18:25;100770.06;;;9.45;100.00
7168;BME280;3625;51.762;14.320;2023-05-24T02:21:04;100925.78;;;10.30;100.00
7168;BME280;3625;51.762;14.320;2023-05-24T02:23:32;100925.63;;;10.43;100.00
7168;BME280;3625;51.762;14.320;2023-05-24T02:26:01;100719.53;;;9.07;100.00
7168;BME280;3625;51.762;14.320;2023-05-24T02:28:33;100933.78;;;10.28;100.00
7168;BME280;3625;51.762;14.320;2023-05-24T02:31:06;100854.06;;;9.88;100.00
7168;BME280;3625;51.762;14.320;2023-05-24T02:33:37;100924.97;;;10.28;100.00
7168;BME280;3625;51.762;14.320;2023-05-24T02:36:06;100862.06;;;9.82;100.00
7168;BME280;3625;51.762;14.320;2023-05-24T02:38:35;100926.75;;;10.24;100.00
7168;BME280;3625;51.762;14.320;2023-05-24T02:41:04;100810.53;;;9.51;100.00
7168;BME280;3625;51.762;14.320;2023-05-24T02:43:36;100956.81;;;10.14;100.00
7168;BME280;3625;51.762;14.320;2023-05-24T02:46:09;100926.06;;;10.07;100.00
7168;BME280;3625;51.762;14.320;2023-05-24T02:48:38;100878.03;;;9.73;100.00
7168;BME280;3625;51.762;14.320;2023-05-24T02:51:09;100934.13;;;9.98;100.00
7168;BME280;3625;51.762;14.320;2023-05-24T02:53:37;100935.00;;;9.95;100.00
7168;BME280;3625;51.762;14.320;2023-05-24T02:56:10;100935.88;;;9.97;100.00
7168;BME280;3625;51.762;14.320;2023-05-24T02:58:42;100741.75;;;8.86;100.00
7168;BME280;3625;51.762;14.320;2023-05-24T03:01:13;100906.09;;;9.83;100.00
7168;BME280;3625;51.762;14.320;2023-05-24T03:03:42;100937.59;;;10.03;100.00
7168;BME280;3625;51.762;14.320;2023-05-24T03:06:16;100907.84;;;9.86;100.00
7168;BME280;3625;51.762;14.320;2023-05-24T03:08:45;100945.44;;;10.07;100.00
7168;BME280;3625;51.762;14.320;2023-05-24T03:11:19;100941.84;;;10.13;100.00
7168;BME280;3625;51.762;14.320;2023-05-24T03:13:54;100946.22;;;10.15;100.00
7168;BME280;3625;51.762;14.320;2023-05-24T03:16:29;100744.09;;;9.11;100.00
7168;BME280;3625;51.762;14.320;2023-05-24T03:18:59;100940.88;;;10.23;100.00
7168;BME280;3625;51.762;14.320;2023-05-24T03:21:30;100957.63;;;10.24;100.00
7168;BME280;3625;51.762;14.320;2023-05-24T03:24:02;100945.25;;;10.26;100.00
7168;BME280;3625;51.762;14.320;2023-05-24T03:26:31;100951.34;;;10.29;100.00
7168;BME280;3625;51.762;14.320;2023-05-24T03:29:09;100867.38;;;9.80;100.00
7168;BME280;3625;51.762;14.320;2023-05-24T03:31:42;100950.41;;;10.38;100.00
7168;BME280;3625;51.762;14.320;2023-05-24T03:34:11;100893.47;;;10.08;100.00
7168;BME280;3625;51.762;14.320;2023-05-24T03:36:41;100947.66;;;10.45;100.00
7168;BME280;3625;51.762;14.320;2023-05-24T03:39:10;100787.69;;;9.45;100.00
7168;BME280;3625;51.762;14.320;2023-05-24T03:41:53;100947.44;;;10.59;100.00
7168;BME280;3625;51.762;14.320;2023-05-24T03:44:38;100950.97;;;10.59;100.00
7168;BME280;3625;51.762;14.320;2023-05-24T03:47:07;100954.41;;;10.65;100.00
7168;BME280;3625;51.762;14.320;2023-05-24T03:49:49;100831.91;;;9.97;100.00
7168;BME280;3625;51.762;14.320;2023-05-24T03:52:18;100963.06;;;10.76;100.00
7168;BME280;3625;51.762;14.320;2023-05-24T03:55:05;100966.56;;;10.78;100.00
7168;BME280;3625;51.762;14.320;2023-05-24T03:57:34;100964.72;;;10.83;100.00
7168;BME280;3625;51.762;14.320;2023-05-24T04:00:07;100835.19;;;10.15;100.00
7168;BME280;3625;51.762;14.320;2023-05-24T04:02:41;100959.19;;;10.98;100.00
7168;BME280;3625;51.762;14.320;2023-05-24T04:05:10;100963.63;;;10.98;100.00
7168;BME280;3625;51.762;14.320;2023-05-24T04:07:39;100971.44;;;11.05;100.00
7168;BME280;3625;51.762;14.320;2023-05-24T04:10:11;100980.06;;;11.16;100.00
7168;BME280;3625;51.762;14.320;2023-05-24T04:12:41;100980.88;;;11.21;100.00
7168;BME280;3625;51.762;14.320;2023-05-24T04:15:14;100986.94;;;11.28;100.00
7168;BME280;3625;51.762;14.320;2023-05-24T04:17:45;100994.72;;;11.39;98.79
7168;BME280;3625;51.762;14.320;2023-05-24T04:20:15;100999.94;;;11.42;98.03
7168;BME280;3625;51.762;14.320;2023-05-24T04:22:43;100838.06;;;10.60;97.15
7168;BME280;3625;51.762;14.320;2023-05-24T04:25:12;101006.84;;;11.52;96.25
7168;BME280;3625;51.762;14.320;2023-05-24T04:27:41;101005.00;;;11.57;96.47
7168;BME280;3625;51.762;14.320;2023-05-24T04:30:13;101006.50;;;11.71;96.19
7168;BME280;3625;51.762;14.320;2023-05-24T04:32:42;100976.69;;;11.59;95.43
7168;BME280;3625;51.762;14.320;2023-05-24T04:35:12;100954.88;;;11.45;94.75
7168;BME280;3625;51.762;14.320;2023-05-24T04:37:41;101024.00;;;11.83;95.15
7168;BME280;3625;51.762;14.320;2023-05-24T04:40:11;100981.03;;;11.63;94.04
7168;BME280;3625;51.762;14.320;2023-05-24T04:42:41;101019.72;;;11.76;93.66
7168;BME280;3625;51.762;14.320;2023-05-24T04:45:12;101025.06;;;11.70;94.12
7168;BME280;3625;51.762;14.320;2023-05-24T04:47:40;101021.66;;;11.65;94.22
7168;BME280;3625;51.762;14.320;2023-05-24T04:50:09;100972.97;;;11.20;95.07
7168;BME280;3625;51.762;14.320;2023-05-24T04:52:40;101004.41;;;11.40;95.39
7168;BME280;3625;51.762;14.320;2023-05-24T04:55:09;101030.75;;;11.49;95.26
7168;BME280;3625;51.762;14.320;2023-05-24T04:57:38;101031.69;;;11.45;95.78
7168;BME280;3625;51.762;14.320;2023-05-24T05:00:08;100959.91;;;11.08;95.37
7168;BME280;3625;51.762;14.320;2023-05-24T05:02:38;101015.06;;;11.37;95.25
7168;BME280;3625;51.762;14.320;2023-05-24T05:05:07;100963.50;;;11.05;95.10
7168;BME280;3625;51.762;14.320;2023-05-24T05:07:36;101042.94;;;11.59;95.67
7168;BME280;3625;51.762;14.320;2023-05-24T05:10:06;101043.75;;;11.64;95.22
7168;BME280;3625;51.762;14.320;2023-05-24T05:12:35;101041.72;;;11.81;94.75
7168;BME280;3625;51.762;14.320;2023-05-24T05:15:06;100960.84;;;11.56;93.14
7168;BME280;3625;51.762;14.320;2023-05-24T05:17:35;101044.59;;;12.17;92.32
7168;BME280;3625;51.762;14.320;2023-05-24T05:20:07;101040.78;;;12.30;89.77
7168;BME280;3625;51.762;14.320;2023-05-24T05:22:36;101056.13;;;12.57;88.99
7168;BME280;3625;51.762;14.320;2023-05-24T05:25:05;101055.06;;;12.66;86.28
7168;BME280;3625;51.762;14.320;2023-05-24T05:27:36;101057.59;;;12.72;86.35
7168;BME280;3625;51.762;14.320;2023-05-24T05:30:06;101073.00;;;12.96;83.98
7168;BME280;3625;51.762;14.320;2023-05-24T05:32:50;101029.25;;;12.72;82.79
7168;BME280;3625;51.762;14.320;2023-05-24T05:35:20;101077.94;;;13.14;81.50
7168;BME280;3625;51.762;14.320;2023-05-24T05:37:49;101074.22;;;13.21;80.28
7168;BME280;3625;51.762;14.320;2023-05-24T05:40:18;101041.97;;;13.37;80.88
7168;BME280;3625;51.762;14.320;2023-05-24T05:42:46;101092.56;;;14.03;79.69
7168;BME280;3625;51.762;14.320;2023-05-24T05:45:16;101088.34;;;14.28;74.61
7168;BME280;3625;51.762;14.320;2023-05-24T05:47:44;101094.16;;;14.10;73.02
7168;BME280;3625;51.762;14.320;2023-05-24T05:50:13;101061.47;;;14.05;74.88
7168;BME280;3625;51.762;14.320;2023-05-24T05:52:43;101086.72;;;14.23;73.75
7168;BME280;3625;51.762;14.320;2023-05-24T05:55:12;101090.34;;;14.20;72.67
7168;BME280;3625;51.762;14.320;2023-05-24T05:57:40;101085.81;;;14.24;72.46
7168;BME280;3625;51.762;14.320;2023-05-24T06:00:11;101086.59;;;13.93;71.95
7168;BME280;3625;51.762;14.320;2023-05-24T06:02:39;101066.84;;;13.70;74.02
7168;BME280;3625;51.762;14.320;2023-05-24T06:05:08;101024.28;;;13.70;74.87
7168;BME280;3625;51.762;14.320;2023-05-24T06:07:39;101069.03;;;14.20;72.09
7168;BME280;3625;51.762;14.320;2023-05-24T06:10:10;101094.19;;;14.43;71.75
7168;BME280;3625;51.762;14.320;2023-05-24T06:12:40;101091.44;;;14.77;71.48
7168;BME280;3625;51.762;14.320;2023-05-24T06:15:09;101109.56;;;14.95;69.65
7168;BME280;3625;51.762;14.320;2023-05-24T06:17:38;101108.66;;;14.96;66.49
7168;BME280;3625;51.762;14.320;2023-05-24T06:20:10;101104.53;;;14.84;67.39
7168;BME280;3625;51.762;14.320;2023-05-24T06:22:41;101083.63;;;14.38;66.51
7168;BME280;3625;51.762;14.320;2023-05-24T06:25:13;101108.91;;;14.56;69.72
7168;BME280;3625;51.762;14.320;2023-05-24T06:27:45;101115.28;;;14.81;68.92
7168;BME280;3625;51.762;14.320;2023-05-24T06:30:14;101117.84;;;14.84;66.81
7168;BME280;3625;51.762;14.320;2023-05-24T06:32:42;101116.19;;;14.80;67.41
7168;BME280;3625;51.762;14.320;2023-05-24T06:35:11;101117.03;;;14.82;67.06
7168;BME280;3625;51.762;14.320;2023-05-24T06:37:40;101115.19;;;14.84;67.64
7168;BME280;3625;51.762;14.320;2023-05-24T06:40:12;101109.78;;;14.87;65.76
7168;BME280;3625;51.762;14.320;2023-05-24T06:42:40;101121.81;;;15.00;67.04
7168;BME280;3625;51.762;14.320;2023-05-24T06:45:10;101128.63;;;15.10;64.82
7168;BME280;3625;51.762;14.320;2023-05-24T06:47:40;101124.06;;;14.85;65.37
7168;BME280;3625;51.762;14.320;2023-05-24T06:50:11;101126.72;;;14.85;67.14
7168;BME280;3625;51.762;14.320;2023-05-24T06:52:39;101141.91;;;14.81;66.00
7168;BME280;3625;51.762;14.320;2023-05-24T06:55:08;101131.72;;;14.66;66.62
7168;BME280;3625;51.762;14.320;2023-05-24T06:57:39;101139.72;;;14.64;66.88
7168;BME280;3625;51.762;14.320;2023-05-24T07:00:09;101085.63;;;14.30;66.79
7168;BME280;3625;51.762;14.320;2023-05-24T07:02:38;101102.53;;;14.29;65.66
7168;BME280;3625;51.762;14.320;2023-05-24T07:05:08;101150.63;;;14.55;67.10
7168;BME280;3625;51.762;14.320;2023-05-24T07:07:39;101150.22;;;14.70;67.07
7168;BME280;3625;51.762;14.320;2023-05-24T07:10:09;101151.00;;;14.74;64.53
7168;BME280;3625;51.762;14.320;2023-05-24T07:12:40;101156.25;;;14.77;65.75
7168;BME280;3625;51.762;14.320;2023-05-24T07:15:09;101162.16;;;15.18;65.73
7168;BME280;3625;51.762;14.320;2023-05-24T07:17:37;101159.78;;;15.38;63.10
7168;BME280;3625;51.762;14.320;2023-05-24T07:20:08;101150.63;;;15.46;63.22
7168;BME280;3625;51.762;14.320;2023-05-24T07:22:38;101163.84;;;15.49;61.70
7168;BME280;3625;51.762;14.320;2023-05-24T07:25:07;101101.25;;;15.33;61.81
7168;BME280;3625;51.762;14.320;2023-05-24T07:27:36;101168.72;;;15.93;61.13
7168;BME280;3625;51.762;14.320;2023-05-24T07:30:07;101175.53;;;16.01;58.51
7168;BME280;3625;51.762;14.320;2023-05-24T07:32:56;101170.38;;;15.97;57.17
7168;BME280;3625;51.762;14.320;2023-05-24T07:35:25;101174.75;;;15.71;57.29
7168;BME280;3625;51.762;14.320;2023-05-24T07:37:54;101186.97;;;15.49;58.48
7168;BME280;3625;51.762;14.320;2023-05-24T07:40:25;101149.72;;;15.18;60.31
7168;BME280;3625;51.762;14.320;2023-05-24T07:42:54;101194.34;;;15.41;59.96
7168;BME280;3625;51.762;14.320;2023-05-24T07:45:24;101187.81;;;15.51;59.59
7168;BME280;3625;51.762;14.320;2023-05-24T07:47:52;101173.19;;;15.35;59.10
7168;BME280;3625;51.762;14.320;2023-05-24T07:50:23;101189.19;;;15.35;58.61
7168;BME280;3625;51.762;14.320;2023-05-24T07:52:52;101189.91;;;15.40;58.92
7168;BME280;3625;51.762;14.320;2023-05-24T07:55:21;101191.38;;;15.50;58.67
7168;BME280;3625;51.762;14.320;2023-05-24T07:57:49;101192.88;;;15.60;59.05
7168;BME280;3625;51.762;14.320;2023-05-24T08:00:19;101140.13;;;15.40;57.29
7168;BME280;3625;51.762;14.320;2023-05-24T08:02:49;101137.66;;;15.34;58.11
7168;BME280;3625;51.762;14.320;2023-05-24T08:05:21;101201.13;;;16.08;57.99
7168;BME280;3625;51.762;14.320;2023-05-24T08:07:50;101156.66;;;15.81;56.14
7168;BME280;3625;51.762;14.320;2023-05-24T08:10:20;101187.03;;;16.30;56.39
7168;BME280;3625;51.762;14.320;2023-05-24T08:12:50;101197.31;;;16.42;56.32
7168;BME280;3625;51.762;14.320;2023-05-24T08:15:21;101198.69;;;16.53;55.62
7168;BME280;3625;51.762;14.320;2023-05-24T08:17:52;101198.59;;;16.56;53.97
7168;BME280;3625;51.762;14.320;2023-05-24T08:20:21;101144.00;;;16.39;54.51
7168;BME280;3625;51.762;14.320;2023-05-24T08:22:49;101181.94;;;16.48;52.16
7168;BME280;3625;51.762;14.320;2023-05-24T08:25:18;101206.75;;;16.52;51.76
7168;BME280;3625;51.762;14.320;2023-05-24T08:27:47;101211.66;;;16.39;52.16
7168;BME280;3625;51.762;14.320;2023-05-24T08:30:15;101199.38;;;16.07;52.61
7168;BME280;3625;51.762;14.320;2023-05-24T08:32:44;101210.78;;;16.12;53.51
7168;BME280;3625;51.762;14.320;2023-05-24T08:35:14;101209.06;;;16.36;52.99
7168;BME280;3625;51.762;14.320;2023-05-24T08:37:48;101181.81;;;16.27;51.76
7168;BME280;3625;51.762;14.320;2023-05-24T08:40:16;101211.97;;;16.30;52.20
7168;BME280;3625;51.762;14.320;2023-05-24T08:42:46;101211.56;;;16.42;52.17
7168;BME280;3625;51.762;14.320;2023-05-24T08:45:17;101125.00;;;15.97;51.68
7168;BME280;3625;51.762;14.320;2023-05-24T08:47:49;101216.06;;;16.40;51.97
7168;BME280;3625;51.762;14.320;2023-05-24T08:50:21;101212.66;;;16.62;52.70
7168;BME280;3625;51.762;14.320;2023-05-24T08:52:50;101217.38;;;16.80;51.86
7168;BME280;3625;51.762;14.320;2023-05-24T08:55:21;101212.25;;;16.47;51.21
7168;BME280;3625;51.762;14.320;2023-05-24T08:57:49;101138.25;;;16.00;52.41
7168;BME280;3625;51.762;14.320;2023-05-24T09:00:20;101224.03;;;15.88;51.01
7168;BME280;3625;51.762;14.320;2023-05-24T09:02:49;101219.94;;;15.76;53.18
7168;BME280;3625;51.762;14.320;2023-05-24T09:05:19;101201.22;;;15.77;54.14
7168;BME280;3625;51.762;14.320;2023-05-24T09:07:49;101170.72;;;15.58;52.15
7168;BME280;3625;51.762;14.320;2023-05-24T09:10:19;101180.31;;;15.34;53.52
7168;BME280;3625;51.762;14.320;2023-05-24T09:12:55;101231.06;;;15.62;54.84
7168;BME280;3625;51.762;14.320;2023-05-24T09:15:25;101231.53;;;15.75;55.64
7168;BME280;3625;51.762;14.320;2023-05-24T09:17:54;101236.97;;;15.73;54.65
7168;BME280;3625;51.762;14.320;2023-05-24T09:20:24;101202.06;;;15.50;55.46
7168;BME280;3625;51.762;14.320;2023-05-24T09:22:54;101170.25;;;15.44;54.34
7168;BME280;3625;51.762;14.320;2023-05-24T09:25:27;101241.13;;;15.82;53.33
7168;BME280;3625;51.762;14.320;2023-05-24T09:27:56;101208.41;;;15.75;52.50
7168;BME280;3625;51.762;14.320;2023-05-24T09:30:25;101239.56;;;16.03;52.72
7168;BME280;3625;51.762;14.320;2023-05-24T09:32:55;101242.34;;;16.00;52.49
7168;BME280;3625;51.762;14.320;2023-05-24T09:35:27;101214.16;;;15.32;52.49
7168;BME280;3625;51.762;14.320;2023-05-24T09:37:56;101248.31;;;15.20;54.13
7168;BME280;3625;51.762;14.320;2023-05-24T09:40:27;101071.16;;;14.09;55.34
7168;BME280;3625;51.762;14.320;2023-05-24T09:43:04;101247.91;;;15.33;54.29
7168;BME280;3625;51.762;14.320;2023-05-24T09:45:40;101244.03;;;15.43;55.03
7168;BME280;3625;51.762;14.320;2023-05-24T09:48:13;101245.25;;;15.64;54.85
7168;BME280;3625;51.762;14.320;2023-05-24T09:50:44;101249.50;;;15.70;53.57
7168;BME280;3625;51.762;14.320;2023-05-24T09:53:16;101254.19;;;15.62;53.18
7168;BME280;3625;51.762;14.320;2023-05-24T09:55:46;101253.59;;;15.51;54.03
7168;BME280;3625;51.762;14.320;2023-05-24T09:58:16;101149.94;;;15.10;54.31
7168;BME280;3625;51.762;14.320;2023-05-24T10:00:44;101267.31;;;15.97;54.08
7168;BME280;3625;51.762;14.320;2023-05-24T10:03:13;101251.59;;;16.16;53.11
7168;BME280;3625;51.762;14.320;2023-05-24T10:05:45;101268.19;;;16.26;50.37
7168;BME280;3625;51.762;14.320;2023-05-24T10:08:15;101276.88;;;16.04;51.15
7168;BME280;3625;51.762;14.320;2023-05-24T10:10:45;101266.16;;;16.06;51.81
7168;BME280;3625;51.762;14.320;2023-05-24T10:13:16;101269.91;;;16.27;50.82
7168;BME280;3625;51.762;14.320;2023-05-24T10:15:44;101166.22;;;15.60;50.28
7168;BME280;3625;51.762;14.320;2023-05-24T10:18:13;101269.25;;;16.20;50.40
7168;BME280;3625;51.762;14.320;2023-05-24T10:20:43;101268.34;;;16.21;49.26
7168;BME280;3625;51.762;14.320;2023-05-24T10:23:18;101263.63;;;16.29;50.15
7168;BME280;3625;51.762;14.320;2023-05-24T10:25:53;101273.09;;;16.66;49.20
7168;BME280;3625;51.762;14.320;2023-05-24T10:28:25;101269.59;;;16.64;48.51
7168;BME280;3625;51.762;14.320;2023-05-24T10:31:03;101232.53;;;16.79;48.50
7168;BME280;3625;51.762;14.320;2023-05-24T10:33:36;101272.03;;;17.21;47.29
7168;BME280;3625;51.762;14.320;2023-05-24T10:36:10;101275.25;;;17.54;46.97
7168;BME280;3625;51.762;14.320;2023-05-24T10:38:40;101241.91;;;17.16;46.47
7168;BME280;3625;51.762;14.320;2023-05-24T10:41:11;101269.22;;;17.24;46.83
7168;BME280;3625;51.762;14.320;2023-05-24T10:43:45;101240.19;;;17.13;46.69
7168;BME280;3625;51.762;14.320;2023-05-24T10:46:34;101278.47;;;17.39;47.05
7168;BME280;3625;51.762;14.320;2023-05-24T10:49:04;101288.19;;;17.18;46.81
7168;BME280;3625;51.762;14.320;2023-05-24T10:51:36;101229.72;;;16.57;48.18
7168;BME280;3625;51.762;14.320;2023-05-24T10:54:17;101248.47;;;16.82;47.36
7168;BME280;3625;51.762;14.320;2023-05-24T10:56:48;101274.59;;;16.99;47.52
7168;BME280;3625;51.762;14.320;2023-05-24T10:59:26;101280.13;;;16.94;47.59
7168;BME280;3625;51.762;14.320;2023-05-24T11:01:57;101286.44;;;16.92;46.34
7168;BME280;3625;51.762;14.320;2023-05-24T11:04:32;101286.97;;;16.77;47.01
7168;BME280;3625;51.762;14.320;2023-05-24T11:07:06;101267.34;;;16.51;47.24
7168;BME280;3625;51.762;14.320;2023-05-24T11:09:37;101249.91;;;16.13;48.25
7168;BME280;3625;51.762;14.320;2023-05-24T11:12:14;101286.66;;;16.86;47.46
7168;BME280;3625;51.762;14.320;2023-05-24T11:14:48;101285.22;;;16.21;48.43
7168;BME280;3625;51.762;14.320;2023-05-24T11:17:19;101245.63;;;16.08;48.61
7168;BME280;3625;51.762;14.320;2023-05-24T11:19:50;101300.56;;;16.69;47.41
7168;BME280;3625;51.762;14.320;2023-05-24T11:22:23;101296.00;;;16.73;46.37
7168;BME280;3625;51.762;14.320;2023-05-24T11:24:54;101288.69;;;16.78;46.79
7168;BME280;3625;51.762;14.320;2023-05-24T11:27:25;101279.66;;;16.82;46.41
7168;BME280;3625;51.762;14.320;2023-05-24T11:29:56;101292.91;;;17.11;46.68
7168;BME280;3625;51.762;14.320;2023-05-24T11:32:26;101280.75;;;17.26;46.12
7168;BME280;3625;51.762;14.320;2023-05-24T11:34:55;101286.94;;;17.51;45.38
7168;BME280;3625;51.762;14.320;2023-05-24T11:37:25;101287.31;;;17.65;45.22
7168;BME280;3625;51.762;14.320;2023-05-24T11:40:12;101294.53;;;17.87;44.67
7168;BME280;3625;51.762;14.320;2023-05-24T11:42:43;101279.97;;;17.94;44.77
7168;BME280;3625;51.762;14.320;2023-05-24T11:45:12;101307.78;;;18.13;44.51
7168;BME280;3625;51.762;14.320;2023-05-24T11:47:41;101299.78;;;17.90;44.10
7168;BME280;3625;51.762;14.320;2023-05-24T11:50:14;101268.78;;;17.59;44.49
7168;BME280;3625;51.762;14.320;2023-05-24T11:52:45;101306.31;;;17.58;44.57
7168;BME280;3625;51.762;14.320;2023-05-24T11:55:23;101298.66;;;17.24;45.33
7168;BME280;3625;51.762;14.320;2023-05-24T11:57:57;101257.97;;;16.91;45.74
7168;BME280;3625;51.762;14.320;2023-05-24T12:00:27;101304.38;;;17.13;46.15
7168;BME280;3625;51.762;14.320;2023-05-24T12:02:56;101300.03;;;17.59;46.43
7168;BME280;3625;51.762;14.320;2023-05-24T12:05:44;101303.78;;;18.23;45.34
7168;BME280;3625;51.762;14.320;2023-05-24T12:08:14;101315.72;;;18.80;44.29
7168;BME280;3625;51.762;14.320;2023-05-24T12:10:43;101319.47;;;19.18;42.75
7168;BME280;3625;51.762;14.320;2023-05-24T12:13:20;101298.16;;;18.73;42.54
7168;BME280;3625;51.762;14.320;2023-05-24T12:15:50;101300.47;;;17.71;44.22
7168;BME280;3625;51.762;14.320;2023-05-24T12:18:24;101278.53;;;17.62;44.70
7168;BME280;3625;51.762;14.320;2023-05-24T12:20:54;101313.53;;;18.02;45.07
7168;BME280;3625;51.762;14.320;2023-05-24T12:23:25;101312.00;;;18.19;44.29
7168;BME280;3625;51.762;14.320;2023-05-24T12:26:00;101313.84;;;18.17;44.44
7168;BME280;3625;51.762;14.320;2023-05-24T12:28:32;101308.66;;;18.14;44.07
7168;BME280;3625;51.762;14.320;2023-05-24T12:31:04;101306.72;;;17.72;44.20
7168;BME280;3625;51.762;14.320;2023-05-24T12:33:33;101247.28;;;16.91;45.28
7168;BME280;3625;51.762;14.320;2023-05-24T12:36:03;101259.63;;;16.95;45.38
7168;BME280;3625;51.762;14.320;2023-05-24T12:38:34;101318.25;;;17.24;44.89
7168;BME280;3625;51.762;14.320;2023-05-24T12:41:04;101309.91;;;17.33;45.60
7168;BME280;3625;51.762;14.320;2023-05-24T12:43:41;101309.50;;;17.69;45.40
7168;BME280;3625;51.762;14.320;2023-05-24T12:46:11;101308.88;;;17.61;45.13
7168;BME280;3625;51.762;14.320;2023-05-24T12:48:40;101316.66;;;17.44;45.33
7168;BME280;3625;51.762;14.320;2023-05-24T12:51:09;101312.19;;;17.44;45.45
7168;BME280;3625;51.762;14.320;2023-05-24T12:53:39;101310.66;;;17.85;45.25
7168;BME280;3625;51.762;14.320;2023-05-24T12:56:09;101308.19;;;18.46;44.63
7168;BME280;3625;51.762;14.320;2023-05-24T12:58:37;101250.31;;;18.64;44.09
7168;BME280;3625;51.762;14.320;2023-05-24T13:01:06;101303.81;;;19.07;43.60
7168;BME280;3625;51.762;14.320;2023-05-24T13:03:34;101301.59;;;18.55;43.91
7168;BME280;3625;51.762;14.320;2023-05-24T13:06:03;101304.69;;;17.54;44.36
7168;BME280;3625;51.762;14.320;2023-05-24T13:08:32;101307.56;;;16.73;45.74
7168;BME280;3625;51.762;14.320;2023-05-24T13:11:04;101255.28;;;15.84;47.05
7168;BME280;3625;51.762;14.320;2023-05-24T13:13:33;101310.22;;;16.19;47.90
7168;BME280;3625;51.762;14.320;2023-05-24T13:16:12;101023.03;;;15.06;47.26
7168;BME280;3625;51.762;14.320;2023-05-24T13:18:41;101002.69;;;15.58;46.16